sensor_id;sensor_type;location;lat;lon;timestamp;temperature;humidity
46440;DHT22;32138;50.966;6.968;2023-03-18T02:33:31;11.10;99.90
46440;DHT22;32138;50.966;6.968;2023-03-18T02:34:34;11.10;99.90
46440;DHT22;32138;50.966;6.968;2023-03-18T02:35:36;11.10;99.90
46440;DHT22;32138;50.966;6.968;2023-03-18T02:36:38;11.10;99.90
46440;DHT22;32138;50.966;6.968;2023-03-18T02:37:39;11.10;99.90
46440;DHT22;32138;50.966;6.968;2023-03-18T02:38:40;11.10;99.90
46440;DHT22;32138;50.966;6.968;2023-03-18T02:39:42;11.20;99.90
46440;DHT22;32138;50.966;6.968;2023-03-18T02:40:42;11.20;99.90
46440;DHT22;32138;50.966;6.968;2023-03-18T02:41:43;11.20;99.90
46440;DHT22;32138;50.966;6.968;2023-03-18T02:42:44;11.10;99.90
46440;DHT22;32138;50.966;6.968;2023-03-18T02:43:46;11.10;99.90
46440;DHT22;32138;50.966;6.968;2023-03-18T02:44:47;11.10;99.90
46440;DHT22;32138;50.966;6.968;2023-03-18T02:47:05;11.10;99.90
46440;DHT22;32138;50.966;6.968;2023-03-18T02:48:11;11.10;99.90
46440;DHT22;32138;50.966;6.968;2023-03-18T02:49:15;11.10;99.90
46440;DHT22;32138;50.966;6.968;2023-03-18T02:50:17;11.10;99.90
46440;DHT22;32138;50.966;6.968;2023-03-18T02:51:18;11.10;99.90
46440;DHT22;32138;50.966;6.968;2023-03-18T02:52:20;11.00;99.90
46440;DHT22;32138;50.966;6.968;2023-03-18T02:53:21;11.00;99.90
46440;DHT22;32138;50.966;6.968;2023-03-18T02:54:23;11.00;99.90
46440;DHT22;32138;50.966;6.968;2023-03-18T02:55:25;11.00;99.90
46440;DHT22;32138;50.966;6.968;2023-03-18T02:56:26;11.10;99.90
46440;DHT22;32138;50.966;6.968;2023-03-18T02:57:27;11.10;99.90
46440;DHT22;32138;50.966;6.968;2023-03-18T02:58:27;11.00;99.90
46440;DHT22;32138;50.966;6.968;2023-03-18T02:59:28;11.00;99.90
46440;DHT22;32138;50.966;6.968;2023-03-18T03:00:31;11.00;99.90
46440;DHT22;32138;50.966;6.968;2023-03-18T03:01:32;11.00;99.90
46440;DHT22;32138;50.966;6.968;2023-03-18T03:02:33;11.00;99.90
46440;DHT22;32138;50.966;6.968;2023-03-18T03:03:34;11.00;99.90
46440;DHT22;32138;50.966;6.968;2023-03-18T03:04:35;11.00;99.90
46440;DHT22;32138;50.966;6.968;2023-03-18T03:05:36;11.00;99.90
46440;DHT22;32138;50.966;6.968;2023-03-18T03:06:37;11.00;99.90
46440;DHT22;32138;50.966;6.968;2023-03-18T03:07:38;10.90;99.90
46440;DHT22;32138;50.966;6.968;2023-03-18T03:08:39;10.90;99.90
46440;DHT22;32138;50.966;6.968;2023-03-18T03:09:40;10.80;99.90
46440;DHT22;32138;50.966;6.968;2023-03-18T03:10:41;10.80;99.90
46440;DHT22;32138;50.966;6.968;2023-03-18T03:11:43;10.80;99.90
46440;DHT22;32138;50.966;6.968;2023-03-18T03:12:45;10.80;99.90
46440;DHT22;32138;50.966;6.968;2023-03-18T03:13:46;10.80;99.90
46440;DHT22;32138;50.966;6.968;2023-03-18T03:14:47;10.80;99.90
46440;DHT22;32138;50.966;6.968;2023-03-18T03:15:48;10.80;99.90
46440;DHT22;32138;50.966;6.968;2023-03-18T03:16:48;10.80;99.90
46440;DHT22;32138;50.966;6.968;2023-03-18T03:17:49;10.80;99.90
46440;DHT22;32138;50.966;6.968;2023-03-18T03:18:50;10.80;99.90
46440;DHT22;32138;50.966;6.968;2023-03-18T03:19:51;10.80;99.90
46440;DHT22;32138;50.966;6.968;2023-03-18T03:20:52;10.80;99.90
46440;DHT22;32138;50.966;6.968;2023-03-18T03:21:53;10.80;99.90
46440;DHT22;32138;50.966;6.968;2023-03-18T03:22:53;10.80;99.90
46440;DHT22;32138;50.966;6.968;2023-03-18T03:23:54;10.80;99.90
46440;DHT22;32138;50.966;6.968;2023-03-18T03:24:55;10.80;99.90
46440;DHT22;32138;50.966;6.968;2023-03-18T03:25:56;10.80;99.90
46440;DHT22;32138;50.966;6.968;2023-03-18T03:26:57;10.80;99.90
46440;DHT22;32138;50.966;6.968;2023-03-18T03:27:57;10.90;99.90
46440;DHT22;32138;50.966;6.968;2023-03-18T03:28:58;10.90;99.90
46440;DHT22;32138;50.966;6.968;2023-03-18T03:29:59;11.00;99.90
46440;DHT22;32138;50.966;6.968;2023-03-18T03:31:00;11.00;99.90
46440;DHT22;32138;50.966;6.968;2023-03-18T03:32:02;11.00;99.90
46440;DHT22;32138;50.966;6.968;2023-03-18T03:33:03;11.00;99.90
46440;DHT22;32138;50.966;6.968;2023-03-18T03:34:04;11.00;99.90
46440;DHT22;32138;50.966;6.968;2023-03-18T03:35:05;11.00;99.90
46440;DHT22;32138;50.966;6.968;2023-03-18T03:36:09;11.10;99.90
46440;DHT22;32138;50.966;6.968;2023-03-18T03:37:11;11.10;99.90
46440;DHT22;32138;50.966;6.968;2023-03-18T03:38:11;11.10;99.90
46440;DHT22;32138;50.966;6.968;2023-03-18T03:39:12;11.00;99.90
46440;DHT22;32138;50.966;6.968;2023-03-18T03:40:13;11.00;99.90
46440;DHT22;32138;50.966;6.968;2023-03-18T03:41:16;11.00;99.90
46440;DHT22;32138;50.966;6.968;2023-03-18T03:42:17;11.00;99.90
46440;DHT22;32138;50.966;6.968;2023-03-18T03:43:17;11.00;99.90
46440;DHT22;32138;50.966;6.968;2023-03-18T03:44:18;11.00;99.90
46440;DHT22;32138;50.966;6.968;2023-03-18T03:45:19;11.00;99.90
46440;DHT22;32138;50.966;6.968;2023-03-18T03:46:20;11.00;99.90
46440;DHT22;32138;50.966;6.968;2023-03-18T03:47:20;11.00;99.90
46440;DHT22;32138;50.966;6.968;2023-03-18T03:48:21;10.90;99.90
46440;DHT22;32138;50.966;6.968;2023-03-18T03:49:21;10.90;99.90
46440;DHT22;32138;50.966;6.968;2023-03-18T03:50:22;10.90;99.90
46440;DHT22;32138;50.966;6.968;2023-03-18T03:51:23;10.90;99.90
46440;DHT22;32138;50.966;6.968;2023-03-18T03:52:24;10.90;99.90
46440;DHT22;32138;50.966;6.968;2023-03-18T03:53:25;10.80;99.90
46440;DHT22;32138;50.966;6.968;2023-03-18T03:54:28;10.80;99.90
46440;DHT22;32138;50.966;6.968;2023-03-18T03:55:29;10.80;99.90
46440;DHT22;32138;50.966;6.968;2023-03-18T03:56:30;10.80;99.90
46440;DHT22;32138;50.966;6.968;2023-03-18T03:57:31;10.80;99.90
46440;DHT22;32138;50.966;6.968;2023-03-18T03:58:32;10.80;99.90
46440;DHT22;32138;50.966;6.968;2023-03-18T03:59:33;10.80;99.90
46440;DHT22;32138;50.966;6.968;2023-03-18T04:00:33;10.70;99.90
46440;DHT22;32138;50.966;6.968;2023-03-18T04:01:34;10.70;99.90
46440;DHT22;32138;50.966;6.968;2023-03-18T04:02:35;10.60;99.90
46440;DHT22;32138;50.966;6.968;2023-03-18T04:03:36;10.60;99.90
46440;DHT22;32138;50.966;6.968;2023-03-18T04:04:37;10.60;99.90
46440;DHT22;32138;50.966;6.968;2023-03-18T04:05:38;10.60;99.90
46440;DHT22;32138;50.966;6.968;2023-03-18T04:06:38;10.60;99.90
46440;DHT22;32138;50.966;6.968;2023-03-18T04:07:39;10.60;99.90
46440;DHT22;32138;50.966;6.968;2023-03-18T04:08:40;10.60;99.90
46440;DHT22;32138;50.966;6.968;2023-03-18T04:09:41;10.60;99.90
46440;DHT22;32138;50.966;6.968;2023-03-18T04:10:42;10.60;99.90
46440;DHT22;32138;50.966;6.968;2023-03-18T04:11:42;10.60;99.90
46440;DHT22;32138;50.966;6.968;2023-03-18T04:12:44;10.50;99.90
46440;DHT22;32138;50.966;6.968;2023-03-18T04:13:45;10.50;99.90
46440;DHT22;32138;50.966;6.968;2023-03-18T04:14:46;10.50;99.90
46440;DHT22;32138;50.966;6.968;2023-03-18T04:15:46;10.50;99.90
46440;DHT22;32138;50.966;6.968;2023-03-18T04:16:47;10.40;99.90
46440;DHT22;32138;50.966;6.968;2023-03-18T04:17:48;10.40;99.90
46440;DHT22;32138;50.966;6.968;2023-03-18T04:18:49;10.40;99.90
46440;DHT22;32138;50.966;6.968;2023-03-18T04:19:50;10.40;99.90
46440;DHT22;32138;50.966;6.968;2023-03-18T04:20:50;10.50;99.90
46440;DHT22;32138;50.966;6.968;2023-03-18T04:21:51;10.40;99.90
46440;DHT22;32138;50.966;6.968;2023-03-18T04:22:55;10.50;99.90
46440;DHT22;32138;50.966;6.968;2023-03-18T04:23:56;10.50;99.90
46440;DHT22;32138;50.966;6.968;2023-03-18T04:24:57;10.50;99.90
46440;DHT22;32138;50.966;6.968;2023-03-18T04:25:58;10.50;99.90
46440;DHT22;32138;50.966;6.968;2023-03-18T04:26:58;10.50;99.90
46440;DHT22;32138;50.966;6.968;2023-03-18T04:27:59;10.50;99.90
46440;DHT22;32138;50.966;6.968;2023-03-18T04:29:00;10.50;99.90
46440;DHT22;32138;50.966;6.968;2023-03-18T04:30:00;10.50;99.90
46440;DHT22;32138;50.966;6.968;2023-03-18T04:31:01;10.40;99.90
46440;DHT22;32138;50.966;6.968;2023-03-18T04:32:02;10.40;99.90
46440;DHT22;32138;50.966;6.968;2023-03-18T04:33:02;10.40;99.90
46440;DHT22;32138;50.966;6.968;2023-03-18T04:34:03;10.40;99.90
46440;DHT22;32138;50.966;6.968;2023-03-18T04:35:04;10.50;99.90
46440;DHT22;32138;50.966;6.968;2023-03-18T04:36:05;10.40;99.90
46440;DHT22;32138;50.966;6.968;2023-03-18T04:37:07;10.40;99.90
46440;DHT22;32138;50.966;6.968;2023-03-18T04:38:09;10.40;99.90
46440;DHT22;32138;50.966;6.968;2023-03-18T04:39:10;10.40;99.90
46440;DHT22;32138;50.966;6.968;2023-03-18T04:40:11;10.40;99.90
46440;DHT22;32138;50.966;6.968;2023-03-18T04:41:11;10.40;99.90
46440;DHT22;32138;50.966;6.968;2023-03-18T04:42:12;10.40;99.90
46440;DHT22;32138;50.966;6.968;2023-03-18T04:43:13;10.40;99.90
46440;DHT22;32138;50.966;6.968;2023-03-18T04:44:13;10.30;99.90
46440;DHT22;32138;50.966;6.968;2023-03-18T04:45:14;10.30;99.90
46440;DHT22;32138;50.966;6.968;2023-03-18T04:46:15;10.30;99.90
46440;DHT22;32138;50.966;6.968;2023-03-18T04:47:16;10.30;99.90
46440;DHT22;32138;50.966;6.968;2023-03-18T04:48:17;10.30;99.90
46440;DHT22;32138;50.966;6.968;2023-03-18T04:49:18;10.30;99.90
46440;DHT22;32138;50.966;6.968;2023-03-18T04:50:19;10.30;99.90
46440;DHT22;32138;50.966;6.968;2023-03-18T04:51:20;10.40;99.90
46440;DHT22;32138;50.966;6.968;2023-03-18T04:52:20;10.40;99.90
46440;DHT22;32138;50.966;6.968;2023-03-18T04:53:21;10.50;99.90
46440;DHT22;32138;50.966;6.968;2023-03-18T04:54:22;10.50;99.90
46440;DHT22;32138;50.966;6.968;2023-03-18T04:55:22;10.50;99.90
46440;DHT22;32138;50.966;6.968;2023-03-18T04:56:23;10.50;99.90
46440;DHT22;32138;50.966;6.968;2023-03-18T04:57:25;10.50;99.90
46440;DHT22;32138;50.966;6.968;2023-03-18T04:58:25;10.50;99.90
46440;DHT22;32138;50.966;6.968;2023-03-18T04:59:26;10.50;99.90
46440;DHT22;32138;50.966;6.968;2023-03-18T05:00:27;10.50;99.90
46440;DHT22;32138;50.966;6.968;2023-03-18T05:01:28;10.50;99.90
46440;DHT22;32138;50.966;6.968;2023-03-18T05:02:28;10.50;99.90
46440;DHT22;32138;50.966;6.968;2023-03-18T05:03:29;10.50;99.90
46440;DHT22;32138;50.966;6.968;2023-03-18T05:04:30;10.50;99.90
46440;DHT22;32138;50.966;6.968;2023-03-18T05:05:30;10.50;99.90
46440;DHT22;32138;50.966;6.968;2023-03-18T05:06:31;10.50;99.90
46440;DHT22;32138;50.966;6.968;2023-03-18T05:07:32;10.50;99.90
46440;DHT22;32138;50.966;6.968;2023-03-18T05:08:33;10.50;99.90
46440;DHT22;32138;50.966;6.968;2023-03-18T05:09:34;10.50;99.90
46440;DHT22;32138;50.966;6.968;2023-03-18T05:10:35;10.50;99.90
46440;DHT22;32138;50.966;6.968;2023-03-18T05:11:36;10.50;99.90
46440;DHT22;32138;50.966;6.968;2023-03-18T05:12:37;10.50;99.90
46440;DHT22;32138;50.966;6.968;2023-03-18T05:13:38;10.50;99.90
46440;DHT22;32138;50.966;6.968;2023-03-18T05:14:42;10.50;99.90
46440;DHT22;32138;50.966;6.968;2023-03-18T05:15:43;10.50;99.90
46440;DHT22;32138;50.966;6.968;2023-03-18T05:16:44;10.50;99.90
46440;DHT22;32138;50.966;6.968;2023-03-18T05:17:45;10.50;99.90
46440;DHT22;32138;50.966;6.968;2023-03-18T05:18:46;10.50;99.90
46440;DHT22;32138;50.966;6.968;2023-03-18T05:19:47;10.40;99.90
46440;DHT22;32138;50.966;6.968;2023-03-18T05:20:48;10.40;99.90
46440;DHT22;32138;50.966;6.968;2023-03-18T05:21:48;10.40;99.90
46440;DHT22;32138;50.966;6.968;2023-03-18T05:22:49;10.40;99.90
46440;DHT22;32138;50.966;6.968;2023-03-18T05:23:50;10.40;99.90
46440;DHT22;32138;50.966;6.968;2023-03-18T05:24:51;10.40;99.90
46440;DHT22;32138;50.966;6.968;2023-03-18T05:25:51;10.40;99.90
46440;DHT22;32138;50.966;6.968;2023-03-18T05:26:52;10.30;99.90
46440;DHT22;32138;50.966;6.968;2023-03-18T05:27:54;10.40;99.90
46440;DHT22;32138;50.966;6.968;2023-03-18T05:28:56;10.40;99.90
46440;DHT22;32138;50.966;6.968;2023-03-18T05:29:58;10.40;99.90
46440;DHT22;32138;50.966;6.968;2023-03-18T05:30:59;10.40;99.90
46440;DHT22;32138;50.966;6.968;2023-03-18T05:31:59;10.30;99.90
46440;DHT22;32138;50.966;6.968;2023-03-18T05:33:00;10.30;99.90
46440;DHT22;32138;50.966;6.968;2023-03-18T05:34:01;10.30;99.90
46440;DHT22;32138;50.966;6.968;2023-03-18T05:35:02;10.30;99.90
46440;DHT22;32138;50.966;6.968;2023-03-18T05:36:03;10.30;99.90
46440;DHT22;32138;50.966;6.968;2023-03-18T05:37:04;10.30;99.90
46440;DHT22;32138;50.966;6.968;2023-03-18T05:38:06;10.30;99.90
46440;DHT22;32138;50.966;6.968;2023-03-18T05:39:07;10.30;99.90
46440;DHT22;32138;50.966;6.968;2023-03-18T05:40:08;10.30;99.90
46440;DHT22;32138;50.966;6.968;2023-03-18T05:41:10;10.30;99.90
46440;DHT22;32138;50.966;6.968;2023-03-18T05:42:12;10.30;99.90
46440;DHT22;32138;50.966;6.968;2023-03-18T05:43:13;10.30;99.90
46440;DHT22;32138;50.966;6.968;2023-03-18T05:44:14;10.20;99.90
46440;DHT22;32138;50.966;6.968;2023-03-18T05:45:14;10.20;99.90
46440;DHT22;32138;50.966;6.968;2023-03-18T05:46:15;10.20;99.90
46440;DHT22;32138;50.966;6.968;2023-03-18T05:47:16;10.20;99.90
46440;DHT22;32138;50.966;6.968;2023-03-18T05:48:17;10.20;99.90
46440;DHT22;32138;50.966;6.968;2023-03-18T05:49:18;10.10;99.90
46440;DHT22;32138;50.966;6.968;2023-03-18T05:51:33;10.20;99.90
46440;DHT22;32138;50.966;6.968;2023-03-18T05:52:34;10.10;99.90
46440;DHT22;32138;50.966;6.968;2023-03-18T05:53:35;10.10;99.90
46440;DHT22;32138;50.966;6.968;2023-03-18T05:54:36;10.10;99.90
46440;DHT22;32138;50.966;6.968;2023-03-18T05:55:36;10.10;99.90
46440;DHT22;32138;50.966;6.968;2023-03-18T05:56:37;10.20;99.90
46440;DHT22;32138;50.966;6.968;2023-03-18T05:57:39;10.20;99.90
46440;DHT22;32138;50.966;6.968;2023-03-18T05:58:39;10.20;99.90
46440;DHT22;32138;50.966;6.968;2023-03-18T05:59:40;10.30;99.90
46440;DHT22;32138;50.966;6.968;2023-03-18T06:00:41;10.30;99.90
46440;DHT22;32138;50.966;6.968;2023-03-18T06:01:42;10.20;99.90
46440;DHT22;32138;50.966;6.968;2023-03-18T06:02:43;10.20;99.90
46440;DHT22;32138;50.966;6.968;2023-03-18T06:03:45;10.20;99.90
46440;DHT22;32138;50.966;6.968;2023-03-18T06:04:46;10.20;99.90
46440;DHT22;32138;50.966;6.968;2023-03-18T06:05:47;10.20;99.90
46440;DHT22;32138;50.966;6.968;2023-03-18T06:06:48;10.20;99.90
46440;DHT22;32138;50.966;6.968;2023-03-18T06:07:49;10.20;99.90
46440;DHT22;32138;50.966;6.968;2023-03-18T06:08:50;10.20;99.90
46440;DHT22;32138;50.966;6.968;2023-03-18T06:09:51;10.30;99.90
46440;DHT22;32138;50.966;6.968;2023-03-18T06:10:51;10.30;99.90
46440;DHT22;32138;50.966;6.968;2023-03-18T06:11:52;10.30;99.90
46440;DHT22;32138;50.966;6.968;2023-03-18T06:12:53;10.40;99.90
46440;DHT22;32138;50.966;6.968;2023-03-18T06:13:55;10.40;99.90
46440;DHT22;32138;50.966;6.968;2023-03-18T06:14:56;10.40;99.90
46440;DHT22;32138;50.966;6.968;2023-03-18T06:15:57;10.50;99.90
46440;DHT22;32138;50.966;6.968;2023-03-18T06:16:58;10.50;99.90
46440;DHT22;32138;50.966;6.968;2023-03-18T06:17:59;10.50;99.90
46440;DHT22;32138;50.966;6.968;2023-03-18T06:19:00;10.60;99.90
46440;DHT22;32138;50.966;6.968;2023-03-18T06:20:02;10.60;99.90
46440;DHT22;32138;50.966;6.968;2023-03-18T06:21:03;10.60;99.90
46440;DHT22;32138;50.966;6.968;2023-03-18T06:22:05;10.60;99.90
46440;DHT22;32138;50.966;6.968;2023-03-18T06:23:06;10.70;99.90
46440;DHT22;32138;50.966;6.968;2023-03-18T06:24:07;10.70;99.90
46440;DHT22;32138;50.966;6.968;2023-03-18T06:25:08;10.70;99.90
46440;DHT22;32138;50.966;6.968;2023-03-18T06:26:09;10.70;99.90
46440;DHT22;32138;50.966;6.968;2023-03-18T06:27:10;10.70;99.90
46440;DHT22;32138;50.966;6.968;2023-03-18T06:28:11;10.70;99.90
46440;DHT22;32138;50.966;6.968;2023-03-18T06:29:12;10.70;99.90
46440;DHT22;32138;50.966;6.968;2023-03-18T06:30:13;10.70;99.90
46440;DHT22;32138;50.966;6.968;2023-03-18T06:31:14;10.80;99.90
46440;DHT22;32138;50.966;6.968;2023-03-18T06:32:15;10.80;99.90
46440;DHT22;32138;50.966;6.968;2023-03-18T06:33:16;10.80;99.90
46440;DHT22;32138;50.966;6.968;2023-03-18T06:34:17;10.70;99.90
46440;DHT22;32138;50.966;6.968;2023-03-18T06:35:18;10.80;99.90
46440;DHT22;32138;50.966;6.968;2023-03-18T06:36:19;10.80;99.90
46440;DHT22;32138;50.966;6.968;2023-03-18T06:37:21;10.80;99.90
46440;DHT22;32138;50.966;6.968;2023-03-18T06:38:22;10.90;99.90
46440;DHT22;32138;50.966;6.968;2023-03-18T06:39:22;10.90;99.90
46440;DHT22;32138;50.966;6.968;2023-03-18T06:40:24;11.00;99.90
46440;DHT22;32138;50.966;6.968;2023-03-18T06:41:24;11.00;99.90
46440;DHT22;32138;50.966;6.968;2023-03-18T06:42:25;11.00;99.90
46440;DHT22;32138;50.966;6.968;2023-03-18T06:43:26;11.00;99.90
46440;DHT22;32138;50.966;6.968;2023-03-18T06:44:27;11.10;99.90
46440;DHT22;32138;50.966;6.968;2023-03-18T06:45:28;11.00;99.90
46440;DHT22;32138;50.966;6.968;2023-03-18T06:46:30;11.00;99.90
46440;DHT22;32138;50.966;6.968;2023-03-18T06:47:31;11.00;99.90
46440;DHT22;32138;50.966;6.968;2023-03-18T06:48:32;11.10;99.90
46440;DHT22;32138;50.966;6.968;2023-03-18T06:49:33;11.10;99.90
46440;DHT22;32138;50.966;6.968;2023-03-18T06:50:34;11.10;99.90
46440;DHT22;32138;50.966;6.968;2023-03-18T06:51:35;11.10;99.90
46440;DHT22;32138;50.966;6.968;2023-03-18T06:52:36;11.10;99.90
46440;DHT22;32138;50.966;6.968;2023-03-18T06:53:36;11.20;99.90
46440;DHT22;32138;50.966;6.968;2023-03-18T06:54:37;11.20;99.90
46440;DHT22;32138;50.966;6.968;2023-03-18T06:55:38;11.20;99.90
46440;DHT22;32138;50.966;6.968;2023-03-18T06:56:39;11.20;99.90
46440;DHT22;32138;50.966;6.968;2023-03-18T06:57:40;11.30;99.90
46440;DHT22;32138;50.966;6.968;2023-03-18T06:58:41;11.20;99.90
46440;DHT22;32138;50.966;6.968;2023-03-18T06:59:42;11.20;99.90
46440;DHT22;32138;50.966;6.968;2023-03-18T07:00:43;11.20;99.90
46440;DHT22;32138;50.966;6.968;2023-03-18T07:01:44;11.30;99.90
46440;DHT22;32138;50.966;6.968;2023-03-18T07:02:45;11.30;99.90
46440;DHT22;32138;50.966;6.968;2023-03-18T07:03:46;11.30;99.90
46440;DHT22;32138;50.966;6.968;2023-03-18T07:04:48;11.30;99.90
46440;DHT22;32138;50.966;6.968;2023-03-18T07:05:49;11.40;99.90
46440;DHT22;32138;50.966;6.968;2023-03-18T07:06:50;11.40;99.90
46440;DHT22;32138;50.966;6.968;2023-03-18T07:07:51;11.40;99.90
46440;DHT22;32138;50.966;6.968;2023-03-18T07:08:53;11.30;99.90
46440;DHT22;32138;50.966;6.968;2023-03-18T07:09:54;11.30;99.90
46440;DHT22;32138;50.966;6.968;2023-03-18T07:10:54;11.40;99.90
46440;DHT22;32138;50.966;6.968;2023-03-18T07:11:55;11.40;99.90
46440;DHT22;32138;50.966;6.968;2023-03-18T07:12:56;11.40;99.90
46440;DHT22;32138;50.966;6.968;2023-03-18T07:13:57;11.40;99.90
46440;DHT22;32138;50.966;6.968;2023-03-18T07:14:57;11.40;99.90
46440;DHT22;32138;50.966;6.968;2023-03-18T07:15:58;11.50;99.90
46440;DHT22;32138;50.966;6.968;2023-03-18T07:16:59;11.50;99.90
46440;DHT22;32138;50.966;6.968;2023-03-18T07:18:02;11.50;99.90
46440;DHT22;32138;50.966;6.968;2023-03-18T07:19:04;11.50;99.90
46440;DHT22;32138;50.966;6.968;2023-03-18T07:20:05;11.50;99.90
46440;DHT22;32138;50.966;6.968;2023-03-18T07:21:06;11.50;99.90
46440;DHT22;32138;50.966;6.968;2023-03-18T07:22:07;11.60;99.90
46440;DHT22;32138;50.966;6.968;2023-03-18T07:23:07;11.60;99.90
46440;DHT22;32138;50.966;6.968;2023-03-18T07:24:09;11.60;99.90
46440;DHT22;32138;50.966;6.968;2023-03-18T07:25:10;11.70;99.90
46440;DHT22;32138;50.966;6.968;2023-03-18T07:26:11;11.70;99.90
46440;DHT22;32138;50.966;6.968;2023-03-18T07:27:12;11.60;99.90
46440;DHT22;32138;50.966;6.968;2023-03-18T07:28:13;11.70;99.90
46440;DHT22;32138;50.966;6.968;2023-03-18T07:29:15;11.70;99.90
46440;DHT22;32138;50.966;6.968;2023-03-18T07:30:16;11.70;99.90
46440;DHT22;32138;50.966;6.968;2023-03-18T07:31:18;11.70;99.90
46440;DHT22;32138;50.966;6.968;2023-03-18T07:32:18;11.70;99.90
46440;DHT22;32138;50.966;6.968;2023-03-18T07:33:19;11.70;99.90
46440;DHT22;32138;50.966;6.968;2023-03-18T07:34:20;11.80;99.90
46440;DHT22;32138;50.966;6.968;2023-03-18T07:35:20;11.80;99.90
46440;DHT22;32138;50.966;6.968;2023-03-18T07:36:22;11.80;99.90
46440;DHT22;32138;50.966;6.968;2023-03-18T07:37:23;11.80;99.90
46440;DHT22;32138;50.966;6.968;2023-03-18T07:38:24;11.90;99.90
46440;DHT22;32138;50.966;6.968;2023-03-18T07:39:25;11.90;99.90
46440;DHT22;32138;50.966;6.968;2023-03-18T07:40:25;11.90;99.90
46440;DHT22;32138;50.966;6.968;2023-03-18T07:41:26;11.90;99.90
46440;DHT22;32138;50.966;6.968;2023-03-18T07:42:27;11.90;99.90
46440;DHT22;32138;50.966;6.968;2023-03-18T07:43:27;11.90;99.90
46440;DHT22;32138;50.966;6.968;2023-03-18T07:44:28;12.00;99.90
46440;DHT22;32138;50.966;6.968;2023-03-18T07:45:29;12.00;99.90
46440;DHT22;32138;50.966;6.968;2023-03-18T07:46:30;12.10;99.90
46440;DHT22;32138;50.966;6.968;2023-03-18T07:47:30;12.10;99.90
46440;DHT22;32138;50.966;6.968;2023-03-18T07:48:31;12.10;99.90
46440;DHT22;32138;50.966;6.968;2023-03-18T07:49:33;12.20;99.90
46440;DHT22;32138;50.966;6.968;2023-03-18T07:50:34;12.30;99.90
46440;DHT22;32138;50.966;6.968;2023-03-18T07:51:35;12.30;99.90
46440;DHT22;32138;50.966;6.968;2023-03-18T07:52:36;12.30;99.90
46440;DHT22;32138;50.966;6.968;2023-03-18T07:53:37;12.30;99.90
46440;DHT22;32138;50.966;6.968;2023-03-18T07:54:38;12.30;99.90
46440;DHT22;32138;50.966;6.968;2023-03-18T07:55:38;12.40;99.90
46440;DHT22;32138;50.966;6.968;2023-03-18T07:56:41;12.40;99.90
46440;DHT22;32138;50.966;6.968;2023-03-18T07:57:41;12.50;99.90
46440;DHT22;32138;50.966;6.968;2023-03-18T07:58:42;12.50;99.90
46440;DHT22;32138;50.966;6.968;2023-03-18T07:59:43;12.50;99.90
46440;DHT22;32138;50.966;6.968;2023-03-18T08:00:43;12.60;99.90
46440;DHT22;32138;50.966;6.968;2023-03-18T08:01:44;12.50;99.90
46440;DHT22;32138;50.966;6.968;2023-03-18T08:02:45;12.60;99.90
46440;DHT22;32138;50.966;6.968;2023-03-18T08:03:46;12.60;99.90
46440;DHT22;32138;50.966;6.968;2023-03-18T08:04:46;12.70;99.90
46440;DHT22;32138;50.966;6.968;2023-03-18T08:05:47;12.80;99.90
46440;DHT22;32138;50.966;6.968;2023-03-18T08:06:48;12.90;99.90
46440;DHT22;32138;50.966;6.968;2023-03-18T08:07:48;13.00;99.90
46440;DHT22;32138;50.966;6.968;2023-03-18T08:08:49;13.00;99.90
46440;DHT22;32138;50.966;6.968;2023-03-18T08:09:50;13.10;99.90
46440;DHT22;32138;50.966;6.968;2023-03-18T08:10:54;13.10;99.90
46440;DHT22;32138;50.966;6.968;2023-03-18T08:11:56;13.20;99.90
46440;DHT22;32138;50.966;6.968;2023-03-18T08:12:56;13.40;99.90
46440;DHT22;32138;50.966;6.968;2023-03-18T08:13:57;13.40;99.90
46440;DHT22;32138;50.966;6.968;2023-03-18T08:14:58;13.50;99.90
46440;DHT22;32138;50.966;6.968;2023-03-18T08:15:59;13.50;99.90
46440;DHT22;32138;50.966;6.968;2023-03-18T08:16:59;13.60;99.90
46440;DHT22;32138;50.966;6.968;2023-03-18T08:18:00;13.60;99.90
46440;DHT22;32138;50.966;6.968;2023-03-18T08:19:01;13.60;99.90
46440;DHT22;32138;50.966;6.968;2023-03-18T08:21:05;16.40;99.90
46440;DHT22;32138;50.966;6.968;2023-03-18T08:22:07;17.00;97.60
46440;DHT22;32138;50.966;6.968;2023-03-18T08:23:07;16.00;98.10
46440;DHT22;32138;50.966;6.968;2023-03-18T08:24:08;15.30;99.50
46440;DHT22;32138;50.966;6.968;2023-03-18T08:25:10;14.90;99.90
46440;DHT22;32138;50.966;6.968;2023-03-18T08:26:11;14.50;99.90
46440;DHT22;32138;50.966;6.968;2023-03-18T08:27:11;14.30;99.90
46440;DHT22;32138;50.966;6.968;2023-03-18T08:28:12;14.20;99.90
46440;DHT22;32138;50.966;6.968;2023-03-18T08:29:13;14.10;99.90
46440;DHT22;32138;50.966;6.968;2023-03-18T08:30:13;14.10;99.90
46440;DHT22;32138;50.966;6.968;2023-03-18T08:31:14;13.90;99.90
46440;DHT22;32138;50.966;6.968;2023-03-18T08:32:15;13.90;99.90
46440;DHT22;32138;50.966;6.968;2023-03-18T08:33:16;14.00;99.90
46440;DHT22;32138;50.966;6.968;2023-03-18T08:34:17;14.00;99.90
46440;DHT22;32138;50.966;6.968;2023-03-18T08:35:17;14.00;99.90
46440;DHT22;32138;50.966;6.968;2023-03-18T08:36:18;14.00;99.90
46440;DHT22;32138;50.966;6.968;2023-03-18T08:37:19;14.00;99.90
46440;DHT22;32138;50.966;6.968;2023-03-18T08:38:20;13.90;99.90
46440;DHT22;32138;50.966;6.968;2023-03-18T08:39:22;13.90;99.90
46440;DHT22;32138;50.966;6.968;2023-03-18T08:40:23;13.90;99.90
46440;DHT22;32138;50.966;6.968;2023-03-18T08:41:25;13.90;99.90
46440;DHT22;32138;50.966;6.968;2023-03-18T08:42:26;14.00;99.90
46440;DHT22;32138;50.966;6.968;2023-03-18T08:43:27;13.90;99.90
46440;DHT22;32138;50.966;6.968;2023-03-18T08:44:27;13.90;99.90
46440;DHT22;32138;50.966;6.968;2023-03-18T08:45:28;13.90;99.90
46440;DHT22;32138;50.966;6.968;2023-03-18T08:46:28;14.10;99.90
46440;DHT22;32138;50.966;6.968;2023-03-18T08:47:30;14.10;99.90
46440;DHT22;32138;50.966;6.968;2023-03-18T08:48:30;14.20;99.90
46440;DHT22;32138;50.966;6.968;2023-03-18T08:49:31;14.30;99.90
46440;DHT22;32138;50.966;6.968;2023-03-18T08:50:33;14.40;99.90
46440;DHT22;32138;50.966;6.968;2023-03-18T08:51:35;14.30;99.90
46440;DHT22;32138;50.966;6.968;2023-03-18T08:52:35;14.40;99.90
46440;DHT22;32138;50.966;6.968;2023-03-18T08:53:37;14.40;99.90
46440;DHT22;32138;50.966;6.968;2023-03-18T08:54:38;14.50;99.90
46440;DHT22;32138;50.966;6.968;2023-03-18T08:55:39;14.30;99.90
46440;DHT22;32138;50.966;6.968;2023-03-18T08:56:39;14.30;99.90
46440;DHT22;32138;50.966;6.968;2023-03-18T08:57:40;14.30;99.90
46440;DHT22;32138;50.966;6.968;2023-03-18T08:58:42;14.20;99.90
46440;DHT22;32138;50.966;6.968;2023-03-18T08:59:47;14.30;99.90
46440;DHT22;32138;50.966;6.968;2023-03-18T09:00:49;14.40;99.90
46440;DHT22;32138;50.966;6.968;2023-03-18T09:01:49;14.30;99.90